Time;durP1;ratioP1;P1;durP2;ratioP2;P2;SDS_P1;SDS_P2;PMS_P1;PMS_P2;Temp;Humidity;BMP_temperature;BMP_pressure;BME280_temperature;BME280_humidity;BME280_pressure;Samples;Min_cycle;Max_cycle;Signal;HPM_P1;HPM_P2
2021/10/23 00:02:01;;;;;;;;;8.50;5.00;;;;;17.88;90.00;102200.75;5078092;28;44732;-80
2021/10/23 00:04:27;;;;;;;;;10.00;5.50;;;;;17.84;90.66;102203.78;5063917;28;45179;-80
2021/10/23 00:06:52;;;;;;;;;10.00;7.00;;;;;17.79;90.19;102193.41;5025170;28;45369;-81
2021/10/23 00:09:17;;;;;;;;;6.25;6.00;;;;;17.76;90.52;102190.97;5044993;28;45367;-81
2021/10/23 00:11:43;;;;;;;;;6.75;4.00;;;;;17.78;90.59;102189.03;5036215;28;45856;-80
2021/10/23 00:14:08;;;;;;;;;9.75;5.50;;;;;17.83;90.28;102194.06;5062659;28;45423;-80
2021/10/23 00:16:34;;;;;;;;;6.50;4.75;;;;;17.86;90.11;102193.81;5037819;28;45244;-81
2021/10/23 00:18:59;;;;;;;;;6.00;4.50;;;;;17.87;90.13;102198.19;5042939;28;45620;-81
2021/10/23 00:21:24;;;;;;;;;6.50;4.50;;;;;17.89;89.99;102199.78;5043179;28;45482;-80
2021/10/23 00:23:50;;;;;;;;;6.50;5.75;;;;;17.90;90.11;102189.94;5043129;28;45541;-80
2021/10/23 00:26:15;;;;;;;;;12.75;6.75;;;;;18.01;89.81;102194.47;5045680;28;45450;-81
2021/10/23 00:28:41;;;;;;;;;13.50;8.25;;;;;18.00;89.36;102200.78;5052898;28;45238;-81
2021/10/23 00:31:07;;;;;;;;;5.50;5.00;;;;;18.16;88.65;102201.31;5039351;28;45383;-80
2021/10/23 00:33:33;;;;;;;;;6.50;6.50;;;;;18.17;88.28;102203.03;5043002;28;47210;-81
2021/10/23 00:35:58;;;;;;;;;9.50;6.00;;;;;18.04;88.53;102200.44;5042734;28;45375;-81
2021/10/23 00:38:24;;;;;;;;;10.00;6.00;;;;;18.01;87.77;102203.34;5063106;28;45386;-81
2021/10/23 00:40:49;;;;;;;;;9.50;5.00;;;;;17.95;88.14;102210.00;5025774;28;45431;-81
2021/10/23 00:43:15;;;;;;;;;6.00;5.50;;;;;17.87;87.25;102199.03;5042577;28;45410;-81
2021/10/23 00:45:40;;;;;;;;;8.75;5.50;;;;;17.90;87.31;102201.50;5042602;28;45328;-81
2021/10/23 00:48:06;;;;;;;;;5.75;5.75;;;;;17.90;87.63;102197.97;5043296;28;45336;-81
2021/10/23 00:50:31;;;;;;;;;8.50;6.50;;;;;17.93;87.81;102195.91;5030809;28;45991;-81
2021/10/23 00:52:57;;;;;;;;;11.75;6.00;;;;;17.97;87.17;102199.19;5062458;28;46130;-81
2021/10/23 00:55:22;;;;;;;;;7.25;5.75;;;;;17.97;87.02;102196.53;5055765;28;45506;-81
2021/10/23 00:57:48;;;;;;;;;10.75;5.00;;;;;18.03;86.99;102195.22;5051982;28;45325;-81
2021/10/23 01:00:13;;;;;;;;;7.25;7.00;;;;;18.04;87.30;102199.56;5062320;28;45462;-81
2021/10/23 01:02:39;;;;;;;;;9.50;5.00;;;;;18.07;86.47;102204.69;5044004;28;46201;-81
2021/10/23 01:05:07;;;;;;;;;6.00;6.00;;;;;18.16;86.46;102202.19;5057663;28;45762;-81
2021/10/23 01:07:34;;;;;;;;;6.00;6.00;;;;;18.13;85.00;102191.72;5044998;28;45412;-81
2021/10/23 01:10:00;;;;;;;;;8.50;5.00;;;;;18.08;85.29;102191.22;5027609;28;45431;-81
2021/10/23 01:12:26;;;;;;;;;5.75;4.75;;;;;17.97;85.35;102190.31;5064061;28;46381;-81
2021/10/23 01:14:52;;;;;;;;;7.75;4.00;;;;;18.01;85.34;102189.13;5044644;28;45939;-81
2021/10/23 01:17:22;;;;;;;;;10.00;5.75;;;;;18.10;85.06;102201.81;5062249;28;45237;-81
2021/10/23 01:19:51;;;;;;;;;7.50;4.25;;;;;18.08;84.63;102191.22;5061206;28;45411;-81
2021/10/23 01:22:25;;;;;;;;;9.75;5.50;;;;;18.10;84.54;102189.28;5061760;28;45520;-81
2021/10/23 01:24:50;;;;;;;;;7.00;5.50;;;;;18.08;84.66;102182.34;5061380;28;45473;-81
2021/10/23 01:27:15;;;;;;;;;8.75;6.00;;;;;18.14;84.46;102185.41;5040689;28;45313;-81
2021/10/23 01:29:41;;;;;;;;;8.00;5.00;;;;;18.14;84.58;102185.41;5041867;28;45438;-81
2021/10/23 01:32:06;;;;;;;;;5.25;4.00;;;;;18.19;84.38;102188.59;5053194;28;46201;-81
2021/10/23 01:34:32;;;;;;;;;5.50;5.00;;;;;18.15;84.46;102186.25;5041703;28;45402;-81
2021/10/23 01:36:59;;;;;;;;;10.00;4.00;;;;;18.11;83.98;102182.13;5023837;28;45449;-81
2021/10/23 01:39:25;;;;;;;;;4.50;4.50;;;;;18.01;83.50;102178.44;5041513;28;45283;-81
2021/10/23 01:41:52;;;;;;;;;8.50;4.75;;;;;17.87;84.14;102174.97;5056068;28;45245;-81
2021/10/23 01:44:17;;;;;;;;;5.00;5.00;;;;;17.93;84.21;102176.38;5061335;28;45280;-81
2021/10/23 01:46:44;;;;;;;;;4.00;4.00;;;;;17.77;84.97;102181.97;5052785;28;45522;-81
2021/10/23 01:49:09;;;;;;;;;5.75;5.50;;;;;17.76;84.12;102182.94;5023796;28;46128;-81
2021/10/23 01:51:36;;;;;;;;;5.25;4.25;;;;;17.76;84.29;102174.94;5041213;28;45417;-81
2021/10/23 01:54:03;;;;;;;;;6.25;3.00;;;;;17.70;84.54;102185.22;5049203;28;45476;-81
2021/10/23 01:56:29;;;;;;;;;6.00;4.25;;;;;17.67;84.16;102167.59;5060824;28;45161;-81
2021/10/23 01:58:54;;;;;;;;;9.50;4.25;;;;;17.72;84.58;102169.94;5055713;28;45383;-81
2021/10/23 02:01:20;;;;;;;;;5.75;4.00;;;;;17.80;84.16;102171.06;5052903;28;45273;-81
2021/10/23 02:03:45;;;;;;;;;4.50;3.75;;;;;17.80;84.57;102163.06;5042604;28;45195;-81
2021/10/23 02:06:11;;;;;;;;;3.50;3.00;;;;;17.90;83.75;102166.75;5057300;28;45178;-81
2021/10/23 02:08:37;;;;;;;;;6.00;3.25;;;;;17.81;83.43;102159.41;5051970;28;45264;-80
2021/10/23 02:11:03;;;;;;;;;6.75;4.00;;;;;17.71;83.41;102153.06;5038408;28;47420;-80
2021/10/23 02:13:29;;;;;;;;;6.75;5.00;;;;;17.69;83.71;102154.13;5059982;28;45468;-80
2021/10/23 02:15:54;;;;;;;;;6.50;3.50;;;;;17.65;83.47;102148.19;5058135;28;45591;-80
2021/10/23 02:18:19;;;;;;;;;5.50;5.00;;;;;17.67;83.29;102148.91;5056720;28;45403;-80
2021/10/23 02:20:45;;;;;;;;;5.50;4.00;;;;;17.58;83.40;102144.22;5042833;28;45436;-80
2021/10/23 02:23:10;;;;;;;;;9.00;5.00;;;;;17.71;83.80;102153.06;5059411;28;45465;-80
2021/10/23 02:25:35;;;;;;;;;4.00;4.00;;;;;17.70;83.26;102145.16;5037361;28;45387;-80
2021/10/23 02:28:01;;;;;;;;;7.00;4.25;;;;;17.76;83.47;102142.88;5039774;28;45704;-80
2021/10/23 02:30:26;;;;;;;;;6.00;5.00;;;;;17.77;83.63;102149.06;5058636;28;45356;-80
2021/10/23 02:32:52;;;;;;;;;9.25;6.00;;;;;17.83;83.60;102143.28;5051830;28;45518;-80
2021/10/23 02:35:19;;;;;;;;;7.00;4.00;;;;;17.86;82.99;102135.88;5055187;28;45462;-80
2021/10/23 02:37:44;;;;;;;;;4.25;4.00;;;;;17.77;83.13;102143.72;5030000;28;45672;-80
2021/10/23 02:40:10;;;;;;;;;6.25;5.00;;;;;17.78;83.20;102140.09;5058693;28;45358;-80
2021/10/23 02:42:36;;;;;;;;;5.25;4.25;;;;;17.67;83.62;102145.38;5042275;28;45527;-80
2021/10/23 02:45:02;;;;;;;;;3.25;3.25;;;;;17.70;83.49;102148.69;5052225;28;45454;-80
2021/10/23 02:47:27;;;;;;;;;5.50;3.75;;;;;17.77;83.81;102147.25;5040550;28;45289;-80
2021/10/23 02:49:52;;;;;;;;;5.25;4.75;;;;;17.82;83.65;102153.13;5022764;28;47929;-80
2021/10/23 02:52:18;;;;;;;;;5.50;3.75;;;;;17.83;83.12;102157.50;5040346;28;45490;-79
2021/10/23 02:54:43;;;;;;;;;8.25;4.50;;;;;17.85;83.47;102157.34;5040401;28;45708;-79
2021/10/23 02:57:09;;;;;;;;;6.25;5.00;;;;;17.93;83.21;102154.97;5056091;28;45600;-80
2021/10/23 02:59:34;;;;;;;;;5.50;4.75;;;;;17.99;83.78;102161.66;5059946;28;45430;-80
2021/10/23 03:01:59;;;;;;;;;8.25;6.00;;;;;18.01;83.29;102157.91;5059003;28;45479;-80
2021/10/23 03:04:25;;;;;;;;;4.75;4.00;;;;;18.04;83.14;102149.63;5042118;28;45321;-80
2021/10/23 03:06:50;;;;;;;;;5.50;5.00;;;;;18.14;83.51;102163.16;5038046;28;45491;-80
2021/10/23 03:09:16;;;;;;;;;5.00;4.25;;;;;18.14;82.61;102155.13;5040076;28;47114;-80
2021/10/23 03:11:42;;;;;;;;;4.75;4.00;;;;;18.16;82.83;102158.56;5039690;28;45736;-80
2021/10/23 03:14:08;;;;;;;;;7.00;4.50;;;;;18.13;83.11;102156.94;5037271;28;45685;-80
2021/10/23 03:16:34;;;;;;;;;5.50;4.50;;;;;18.01;82.90;102149.03;5035964;28;45530;-80
2021/10/23 03:18:59;;;;;;;;;6.75;4.75;;;;;18.00;83.23;102155.34;5059567;28;45518;-80
2021/10/23 03:21:25;;;;;;;;;5.50;4.00;;;;;18.03;83.89;102149.78;5059837;28;45246;-80
2021/10/23 03:23:50;;;;;;;;;8.25;2.75;;;;;17.96;83.48;102154.72;5057881;28;45477;-79
2021/10/23 03:26:16;;;;;;;;;6.00;4.25;;;;;18.02;83.38;102164.13;5048918;28;45312;-80
2021/10/23 03:28:42;;;;;;;;;6.00;4.00;;;;;18.07;83.41;102164.59;5039763;28;46175;-80
2021/10/23 03:31:07;;;;;;;;;6.25;5.25;;;;;18.13;83.53;102158.78;5039440;28;45466;-80
2021/10/23 03:33:33;;;;;;;;;6.00;5.75;;;;;18.08;82.73;102147.59;5035520;28;45640;-80
2021/10/23 03:35:58;;;;;;;;;5.00;4.00;;;;;18.06;82.96;102146.84;5029592;28;45238;-80
2021/10/23 03:38:24;;;;;;;;;7.00;3.75;;;;;18.16;82.74;102158.56;5029081;28;45482;-80
2021/10/23 03:40:49;;;;;;;;;5.00;4.75;;;;;18.18;82.75;102140.56;5008179;28;45408;-80
2021/10/23 03:43:15;;;;;;;;;5.00;4.25;;;;;18.19;82.67;102150.31;5038370;28;45614;-79
2021/10/23 03:45:40;;;;;;;;;4.00;4.00;;;;;18.27;82.49;102153.22;5022259;28;45566;-80
2021/10/23 03:48:05;;;;;;;;;5.25;5.25;;;;;18.23;82.55;102149.06;5039271;28;45454;-80
2021/10/23 03:50:31;;;;;;;;;4.75;4.25;;;;;18.21;82.57;102145.66;5031304;28;45525;-80
2021/10/23 03:52:57;;;;;;;;;7.00;3.75;;;;;18.20;82.59;102146.66;5039551;28;45338;-80
2021/10/23 03:55:22;;;;;;;;;5.75;4.00;;;;;18.19;82.57;102144.97;5027963;28;45388;-80
2021/10/23 03:57:48;;;;;;;;;11.75;4.50;;;;;18.21;82.23;102146.50;5034136;28;49578;-79
2021/10/23 04:00:14;;;;;;;;;4.50;4.00;;;;;18.22;82.45;102145.56;5019721;28;45495;-80
2021/10/23 04:02:39;;;;;;;;;6.00;4.50;;;;;18.21;82.92;102145.66;5032751;28;45243;-80
2021/10/23 04:05:05;;;;;;;;;7.50;4.75;;;;;18.21;82.48;102143.84;5039082;28;45309;-80
2021/10/23 04:07:31;;;;;;;;;5.75;3.00;;;;;18.18;82.75;102137.91;5045445;28;45325;-79
2021/10/23 04:09:58;;;;;;;;;6.50;4.00;;;;;18.15;82.61;102136.31;5039000;28;45242;-79
2021/10/23 04:12:24;;;;;;;;;5.25;4.00;;;;;18.12;82.91;102138.38;5033327;28;45486;-79
2021/10/23 04:14:49;;;;;;;;;7.25;4.00;;;;;18.15;82.96;102144.31;5021231;28;45504;-79
2021/10/23 04:17:15;;;;;;;;;4.75;4.75;;;;;18.17;82.22;102137.03;5038834;28;45521;-79
2021/10/23 04:19:40;;;;;;;;;8.00;4.00;;;;;18.21;82.65;102140.31;5039140;28;45261;-79
2021/10/23 04:22:05;;;;;;;;;5.75;4.00;;;;;18.20;82.59;102144.00;5035244;28;45904;-79
2021/10/23 04:24:31;;;;;;;;;11.75;4.25;;;;;18.23;82.45;102141.91;5001157;28;45495;-79
2021/10/23 04:26:56;;;;;;;;;9.50;4.25;;;;;18.20;82.82;102139.50;5033994;28;46537;-79
2021/10/23 04:29:22;;;;;;;;;8.25;4.00;;;;;18.29;82.89;102141.44;5051497;28;45446;-79
2021/10/23 04:31:48;;;;;;;;;5.00;5.00;;;;;18.31;82.56;102141.31;5065701;28;45356;-78
2021/10/23 04:34:14;;;;;;;;;5.00;5.00;;;;;18.32;82.41;102132.31;5044091;28;45388;-78
2021/10/23 04:36:40;;;;;;;;;4.25;4.25;;;;;18.40;82.47;102142.41;5038746;28;45377;-78
2021/10/23 04:39:05;;;;;;;;;9.50;4.00;;;;;18.42;81.89;102138.66;5036546;28;45529;-79
2021/10/23 04:41:30;;;;;;;;;5.25;3.25;;;;;18.44;81.53;102146.56;5054751;28;45497;-78
2021/10/23 04:43:56;;;;;;;;;5.75;4.00;;;;;18.34;82.33;102146.44;5057113;28;45181;-78
2021/10/23 04:46:21;;;;;;;;;4.25;4.00;;;;;18.33;82.38;102139.38;5037272;28;48423;-79
2021/10/23 04:48:47;;;;;;;;;5.00;4.00;;;;;18.30;82.12;102155.66;5042472;28;45287;-79
2021/10/23 04:51:12;;;;;;;;;4.50;3.25;;;;;18.29;82.27;102143.28;5024447;28;45310;-79
2021/10/23 04:53:37;;;;;;;;;5.25;4.00;;;;;18.23;82.31;102141.06;5024793;28;45872;-80
2021/10/23 04:56:03;;;;;;;;;5.00;3.25;;;;;18.30;82.26;102152.97;5048245;28;45690;-77
2021/10/23 04:58:28;;;;;;;;;3.75;3.00;;;;;18.27;81.88;102148.75;5049213;28;45525;-81
2021/10/23 05:00:56;;;;;;;;;4.00;4.00;;;;;18.27;82.41;102150.56;5047896;28;45421;-81
2021/10/23 05:03:22;;;;;;;;;4.75;4.00;;;;;18.23;82.17;102146.41;5045065;28;45324;-79
2021/10/23 05:05:47;;;;;;;;;7.50;4.00;;;;;18.18;83.02;102149.44;5055914;28;45418;-80
2021/10/23 05:08:12;;;;;;;;;5.00;4.00;;;;;18.29;82.37;102146.81;5050286;28;45467;-81
2021/10/23 05:10:39;;;;;;;;;3.25;3.25;;;;;18.44;81.45;102152.75;5058396;28;45295;-82
2021/10/23 05:13:05;;;;;;;;;6.75;5.00;;;;;18.51;81.10;102162.00;5029655;28;45619;-81
2021/10/23 05:15:30;;;;;;;;;9.00;4.00;;;;;18.46;81.17;102166.03;5047839;28;46042;-82
2021/10/23 05:17:56;;;;;;;;;7.25;3.00;;;;;18.36;81.68;102163.22;5023661;28;45334;-81
2021/10/23 05:20:21;;;;;;;;;3.75;3.75;;;;;18.32;82.25;102159.91;5034015;28;45416;-84
2021/10/23 05:22:47;;;;;;;;;5.75;4.00;;;;;18.29;81.54;102159.31;5064711;28;45278;-81
2021/10/23 05:25:12;;;;;;;;;5.50;3.50;;;;;18.25;81.40;102169.38;5060867;28;46499;-80
2021/10/23 05:27:37;;;;;;;;;4.00;3.00;;;;;18.31;81.31;102160.03;5031464;28;45211;-80
2021/10/23 05:30:04;;;;;;;;;4.00;4.00;;;;;18.32;80.83;102164.41;5046873;28;45565;-80
2021/10/23 05:32:29;;;;;;;;;3.00;3.00;;;;;18.32;80.48;102159.06;5044664;28;45382;-80
2021/10/23 05:34:55;;;;;;;;;5.25;4.00;;;;;18.25;80.88;102161.38;5017712;28;46356;-80
2021/10/23 05:37:20;;;;;;;;;4.50;3.00;;;;;18.28;80.94;102160.28;5005667;28;45451;-80
2021/10/23 05:39:45;;;;;;;;;6.00;4.00;;;;;18.21;81.39;102165.22;5042246;28;45376;-80
2021/10/23 05:42:11;;;;;;;;;8.25;4.75;;;;;18.14;81.77;102158.66;5026460;28;44917;-81
2021/10/23 05:44:36;;;;;;;;;4.00;4.00;;;;;18.19;81.86;102161.84;5029751;28;46500;-80
2021/10/23 05:47:02;;;;;;;;;9.75;4.00;;;;;18.17;82.07;102168.28;5026747;28;44676;-80
2021/10/23 05:49:28;;;;;;;;;7.50;5.50;;;;;18.25;81.47;102164.03;5032088;28;46499;-80
2021/10/23 05:51:54;;;;;;;;;5.50;4.00;;;;;18.37;81.56;102170.28;5005137;28;45353;-80
2021/10/23 05:54:20;;;;;;;;;12.25;6.00;;;;;18.42;80.96;102167.22;5021816;28;45494;-80
2021/10/23 05:56:45;;;;;;;;;6.00;4.50;;;;;18.26;81.71;102168.44;5034142;28;45198;-80
2021/10/23 05:59:11;;;;;;;;;6.50;3.75;;;;;18.19;81.88;102163.66;5042179;28;45217;-80
2021/10/23 06:01:43;;;;;;;;;3.75;3.25;;;;;18.18;82.07;102157.47;5041945;28;45411;-80
2021/10/23 06:04:09;;;;;;;;;4.75;4.00;;;;;18.09;82.16;102160.00;5033167;28;45362;-80
2021/10/23 06:06:34;;;;;;;;;7.00;3.50;;;;;18.16;82.69;102170.09;5021438;28;45255;-80
2021/10/23 06:09:03;;;;;;;;;5.25;3.00;;;;;18.23;82.10;102173.16;5021763;28;45253;-80
2021/10/23 06:11:29;;;;;;;;;6.00;4.00;;;;;18.15;82.52;102171.06;5021036;28;45379;-80
2021/10/23 06:13:58;;;;;;;;;4.75;4.25;;;;;18.14;82.50;102174.72;5035572;28;47264;-80
2021/10/23 06:16:23;;;;;;;;;6.00;4.00;;;;;18.11;82.43;102174.09;5041124;28;45519;-80
2021/10/23 06:18:49;;;;;;;;;4.00;4.00;;;;;18.16;82.31;102179.94;5041328;28;45253;-80
2021/10/23 06:21:16;;;;;;;;;8.00;4.00;;;;;18.14;82.44;102188.06;5041149;28;45222;-80
2021/10/23 06:23:41;;;;;;;;;6.00;3.00;;;;;18.19;82.43;102180.56;5041293;28;46282;-80
2021/10/23 06:26:06;;;;;;;;;4.50;3.00;;;;;18.24;81.61;102180.19;5040774;28;45198;-80
2021/10/23 06:28:36;;;;;;;;;3.00;3.00;;;;;18.20;81.51;102184.09;5027862;28;45261;-80
2021/10/23 06:31:05;;;;;;;;;5.00;4.50;;;;;18.21;81.64;102183.94;5041214;28;45410;-80
2021/10/23 06:33:31;;;;;;;;;3.75;3.75;;;;;18.15;82.38;102194.28;5040938;28;46451;-80
2021/10/23 06:35:56;;;;;;;;;3.50;3.00;;;;;18.30;81.50;102190.41;5040774;28;45185;-80
2021/10/23 06:38:22;;;;;;;;;5.50;3.00;;;;;18.33;81.48;102188.38;5041504;28;45245;-80
2021/10/23 06:40:47;;;;;;;;;6.50;5.00;;;;;18.42;81.62;102210.03;5025035;28;45465;-80
2021/10/23 06:43:13;;;;;;;;;5.25;3.25;;;;;18.25;82.02;102189.94;5020751;28;45376;-80
2021/10/23 06:45:38;;;;;;;;;5.50;4.00;;;;;18.38;81.68;102197.88;5020875;28;45566;-80
2021/10/23 06:48:05;;;;;;;;;4.00;4.00;;;;;18.29;81.81;102202.09;5020852;28;45395;-80
2021/10/23 06:50:30;;;;;;;;;7.50;4.50;;;;;18.40;82.23;102210.13;5003038;28;45517;-79
2021/10/23 06:52:55;;;;;;;;;7.50;5.00;;;;;18.40;82.19;102203.94;5002875;28;48204;-80
2021/10/23 06:55:21;;;;;;;;;7.75;5.50;;;;;18.50;81.91;102213.81;5020890;28;45448;-80
2021/10/23 06:57:46;;;;;;;;;4.50;3.75;;;;;18.45;82.05;102207.97;5040994;28;45424;-80
2021/10/23 07:00:12;;;;;;;;;4.25;4.25;;;;;18.54;81.60;102215.28;5040721;28;45324;-80
2021/10/23 07:02:42;;;;;;;;;5.25;5.25;;;;;18.64;81.46;102220.81;5040141;28;46290;-80
2021/10/23 07:05:10;;;;;;;;;9.50;6.00;;;;;18.58;82.22;102227.47;5040405;28;45801;-81
2021/10/23 07:07:35;;;;;;;;;5.25;3.75;;;;;18.63;81.48;102227.13;5040736;28;45430;-81
2021/10/23 07:10:02;;;;;;;;;3.75;3.50;;;;;18.62;81.97;102226.28;5040064;28;45347;-80
2021/10/23 07:12:27;;;;;;;;;10.50;4.50;;;;;18.67;81.63;102237.47;5042641;28;45499;-80
2021/10/23 07:14:53;;;;;;;;;5.50;5.00;;;;;18.49;82.22;102232.63;5025971;28;45453;-80
2021/10/23 07:17:18;;;;;;;;;6.00;4.00;;;;;18.55;81.73;102242.91;5022944;28;45256;-80
2021/10/23 07:19:43;;;;;;;;;5.25;3.75;;;;;18.53;82.40;102248.34;5040486;28;45526;-80
2021/10/23 07:22:09;;;;;;;;;5.25;4.00;;;;;18.61;82.22;102243.28;5040288;28;46181;-80
2021/10/23 07:24:34;;;;;;;;;6.00;3.00;;;;;18.78;81.65;102249.16;5023444;28;45202;-80
2021/10/23 07:26:59;;;;;;;;;5.50;3.75;;;;;18.91;81.22;102247.22;5020205;28;45278;-80
2021/10/23 07:29:25;;;;;;;;;8.00;3.25;;;;;18.73;81.45;102254.03;5060011;28;45547;-80
2021/10/23 07:31:50;;;;;;;;;7.25;4.75;;;;;18.66;82.13;102259.81;5042152;28;48341;-80
2021/10/23 07:34:16;;;;;;;;;8.25;4.75;;;;;18.79;82.14;102257.06;5060164;28;45230;-80
2021/10/23 07:36:41;;;;;;;;;5.00;3.00;;;;;18.79;81.58;102261.56;5042053;28;45430;-80
2021/10/23 07:39:06;;;;;;;;;4.50;4.25;;;;;18.84;81.69;102273.63;5059879;28;45227;-80
2021/10/23 07:41:32;;;;;;;;;5.00;3.25;;;;;18.81;81.93;102273.00;5059714;28;45345;-80
2021/10/23 07:43:57;;;;;;;;;3.25;3.00;;;;;18.86;82.28;102276.16;5060221;28;45158;-80
2021/10/23 07:46:24;;;;;;;;;5.50;5.00;;;;;18.94;81.78;102274.59;5060305;28;45242;-80
2021/10/23 07:48:49;;;;;;;;;5.00;4.00;;;;;18.92;81.63;102270.34;5059744;28;45487;-80
2021/10/23 07:51:14;;;;;;;;;7.50;4.75;;;;;18.91;82.15;102276.66;5060321;28;46085;-80
2021/10/23 07:53:40;;;;;;;;;4.50;2.00;;;;;18.94;82.23;102281.75;5042605;28;45830;-80
2021/10/23 07:56:05;;;;;;;;;6.50;4.00;;;;;18.98;82.27;102285.91;5060261;28;45280;-80
2021/10/23 07:58:31;;;;;;;;;6.50;5.25;;;;;19.02;82.29;102288.25;5041921;28;45454;-80
2021/10/23 08:00:58;;;;;;;;;5.00;3.50;;;;;19.19;81.29;102296.78;5041748;28;48196;-80
2021/10/23 08:03:24;;;;;;;;;5.00;4.00;;;;;19.10;82.02;102301.03;5041604;28;45387;-80
2021/10/23 08:05:49;;;;;;;;;3.00;3.00;;;;;19.17;81.53;102296.88;5042050;28;45434;-80
2021/10/23 08:08:14;;;;;;;;;7.25;4.75;;;;;19.26;81.62;102293.47;5041704;28;45252;-80
2021/10/23 08:10:40;;;;;;;;;4.25;4.00;;;;;19.28;81.33;102286.19;5041537;28;47447;-80
2021/10/23 08:13:05;;;;;;;;;5.25;4.00;;;;;19.36;80.77;102293.59;5059722;28;45426;-80
2021/10/23 08:15:31;;;;;;;;;6.75;4.00;;;;;19.43;80.71;102295.66;5045371;28;45802;-80
2021/10/23 08:18:02;;;;;;;;;4.25;3.00;;;;;19.53;80.22;102297.63;5044910;28;45244;-80
2021/10/23 08:20:29;;;;;;;;;7.00;4.00;;;;;19.48;80.09;102294.50;5063195;28;45289;-79
2021/10/23 08:22:55;;;;;;;;;4.00;4.00;;;;;19.49;80.31;102282.75;5063362;28;45430;-80
2021/10/23 08:25:20;;;;;;;;;3.00;3.00;;;;;19.62;80.37;102288.84;5063221;28;45304;-81
2021/10/23 08:27:46;;;;;;;;;7.25;4.00;;;;;19.80;79.74;102288.19;5069028;28;45387;-80
2021/10/23 08:30:17;;;;;;;;;4.25;3.50;;;;;19.94;79.11;102283.56;5044860;28;47222;-80
2021/10/23 08:32:43;;;;;;;;;9.75;4.25;;;;;20.00;78.95;102291.94;5045208;28;45737;-80
2021/10/23 08:35:10;;;;;;;;;6.75;5.25;;;;;20.13;78.73;102295.28;5063891;28;45224;-80
2021/10/23 08:37:37;;;;;;;;;6.75;5.00;;;;;20.25;78.88;102289.88;5063081;28;45474;-80
2021/10/23 08:40:07;;;;;;;;;7.75;3.75;;;;;20.44;77.97;102295.44;5062738;28;45317;-80
2021/10/23 08:42:33;;;;;;;;;5.75;4.00;;;;;20.40;76.63;102283.25;5062706;28;45257;-80
2021/10/23 08:45:01;;;;;;;;;5.00;5.00;;;;;20.56;77.40;102297.09;5063240;28;45356;-80
2021/10/23 08:47:28;;;;;;;;;7.25;5.50;;;;;20.67;77.05;102294.31;5062544;28;45237;-80
2021/10/23 08:49:56;;;;;;;;;8.00;6.00;;;;;20.76;76.14;102287.34;5044671;28;47285;-81
2021/10/23 08:52:22;;;;;;;;;5.00;5.00;;;;;20.87;76.48;102282.72;5062534;28;45637;-80
2021/10/23 08:54:48;;;;;;;;;7.00;6.00;;;;;21.04;76.09;102291.13;5062761;28;45300;-80
2021/10/23 08:57:13;;;;;;;;;6.25;6.00;;;;;21.07;75.17;102296.25;5073891;28;45784;-81
2021/10/23 08:59:40;;;;;;;;;6.25;5.50;;;;;21.17;73.68;102294.47;5044507;28;48099;-80
2021/10/23 09:02:07;;;;;;;;;9.50;7.00;;;;;21.30;74.71;102292.44;5044144;28;45198;-80
2021/10/23 09:04:32;;;;;;;;;8.75;5.50;;;;;21.46;74.75;102303.53;5062693;28;45510;-80
2021/10/23 09:07:09;;;;;;;;;10.00;6.25;;;;;21.67;73.85;102287.28;5062573;28;45336;-81
2021/10/23 09:09:57;;;;;;;;;6.50;6.00;;;;;21.87;73.22;102286.34;5044358;28;48294;-80
2021/10/23 09:12:29;;;;;;;;;5.25;4.50;;;;;22.03;71.90;102294.75;5064870;28;45331;-80
2021/10/23 09:15:11;;;;;;;;;7.75;6.25;;;;;22.12;71.85;102290.38;5065950;28;45284;-80
2021/10/23 09:17:40;;;;;;;;;7.25;5.50;;;;;21.98;71.99;102282.72;5062194;28;45536;-81
2021/10/23 09:20:14;;;;;;;;;8.00;7.00;;;;;22.12;70.81;102289.53;5062341;28;45368;-80
2021/10/23 09:22:42;;;;;;;;;6.75;5.25;;;;;22.29;71.20;102284.28;5044102;28;45357;-81
2021/10/23 09:25:23;;;;;;;;;8.75;7.75;;;;;22.53;70.81;102286.53;5062091;28;45737;-81
2021/10/23 09:28:03;;;;;;;;;13.25;7.25;;;;;22.75;70.27;102293.47;5067324;28;45509;-81
2021/10/23 09:30:34;;;;;;;;;13.25;8.00;;;;;22.92;69.34;102283.78;5062238;28;46641;-81
2021/10/23 09:33:05;;;;;;;;;7.75;7.25;;;;;23.16;70.02;102288.66;5043667;28;45422;-81
2021/10/23 09:35:32;;;;;;;;;9.00;8.00;;;;;23.30;69.13;102283.66;5062128;28;45228;-80
2021/10/23 09:38:00;;;;;;;;;8.50;6.75;;;;;23.38;68.77;102283.75;5061832;28;45228;-81
2021/10/23 09:40:28;;;;;;;;;8.00;6.75;;;;;23.41;68.53;102279.88;5061909;28;45557;-81
2021/10/23 09:43:12;;;;;;;;;9.50;7.25;;;;;23.50;66.01;102285.25;5061824;28;45554;-81
2021/10/23 09:45:59;;;;;;;;;9.00;8.00;;;;;23.44;66.89;102285.84;5043907;28;45523;-81
2021/10/23 09:48:31;;;;;;;;;10.00;7.75;;;;;23.58;66.78;102279.09;5061974;28;45435;-81
2021/10/23 09:51:26;;;;;;;;;7.25;7.00;;;;;23.61;65.02;102272.56;5062184;28;45543;-81
2021/10/23 09:53:55;;;;;;;;;8.50;7.00;;;;;23.58;64.96;102281.78;5044488;28;45667;-82
2021/10/23 09:56:25;;;;;;;;;11.00;8.00;;;;;23.62;65.94;102285.06;5052502;28;45372;-81
2021/10/23 09:59:02;;;;;;;;;7.50;7.00;;;;;23.75;65.39;102277.47;5063999;28;45481;-81
2021/10/23 10:01:29;;;;;;;;;10.25;7.50;;;;;23.71;65.49;102274.22;5061919;28;46318;-81
2021/10/23 10:04:03;;;;;;;;;11.25;7.50;;;;;23.68;63.68;102273.66;5043119;28;45635;-81
2021/10/23 10:06:29;;;;;;;;;11.75;6.75;;;;;23.50;64.69;102277.16;5061643;28;45255;-81
2021/10/23 10:08:55;;;;;;;;;6.75;6.00;;;;;23.46;64.63;102277.59;5061672;28;45294;-81
2021/10/23 10:11:21;;;;;;;;;7.75;6.75;;;;;23.35;64.61;102285.88;5061373;28;46121;-81
2021/10/23 10:13:48;;;;;;;;;7.75;7.00;;;;;23.31;63.25;102279.09;5049438;28;45446;-81
2021/10/23 10:16:14;;;;;;;;;6.75;5.75;;;;;23.11;63.33;102287.28;5043290;28;45646;-81
2021/10/23 10:18:45;;;;;;;;;9.75;7.00;;;;;23.03;63.49;102289.84;5043238;28;45784;-81
2021/10/23 10:21:13;;;;;;;;;9.75;7.00;;;;;22.86;64.34;102281.66;5061262;28;46407;-81
2021/10/23 10:23:43;;;;;;;;;10.00;6.75;;;;;22.68;64.28;102289.59;5061456;28;45573;-81
2021/10/23 10:26:14;;;;;;;;;7.25;7.00;;;;;22.54;64.41;102287.38;5061027;28;45340;-81
2021/10/23 10:29:28;;;;;;;;;14.00;10.00;;;;;22.50;65.18;102280.56;5067320;28;45360;-81
2021/10/23 10:37:44;;;;;;;;;12.00;8.25;;;;;22.38;65.30;102286.13;5060500;28;45456;-81
2021/10/23 10:43:06;;;;;;;;;10.75;8.00;;;;;22.97;65.22;102286.88;5060902;28;45424;-81
2021/10/23 10:45:34;;;;;;;;;9.75;7.75;;;;;23.31;64.39;102285.31;5042558;28;45537;-81
2021/10/23 10:48:20;;;;;;;;;9.75;7.75;;;;;23.51;63.17;102278.00;5061024;28;45186;-81
2021/10/23 10:50:53;;;;;;;;;8.25;5.25;;;;;23.68;62.02;102271.81;5042614;28;45244;-81
2021/10/23 10:53:34;;;;;;;;;9.00;8.00;;;;;23.90;61.49;102272.38;5042851;28;47344;-81
2021/10/23 10:55:59;;;;;;;;;6.50;6.50;;;;;24.08;62.08;102270.53;5066801;28;45628;-81
2021/10/23 10:58:44;;;;;;;;;8.75;6.00;;;;;24.56;61.25;102268.28;5048380;28;45348;-81
2021/10/23 11:01:16;;;;;;;;;9.75;6.25;;;;;25.10;58.88;102257.31;5042958;28;45471;-81
2021/10/23 11:03:43;;;;;;;;;9.00;6.50;;;;;25.46;58.46;102264.22;5042462;28;45785;-81
2021/10/23 11:06:28;;;;;;;;;5.25;4.00;;;;;25.92;54.89;102252.00;5041458;28;45375;-81
2021/10/23 11:11:47;;;;;;;;;5.50;4.00;;;;;26.55;52.87;102251.38;5062697;28;45517;-81
2021/10/23 11:14:21;;;;;;;;;7.75;4.25;;;;;26.81;54.97;102245.72;5068375;28;45415;-81
2021/10/23 11:16:53;;;;;;;;;6.00;5.00;;;;;26.72;54.18;102244.03;5061822;28;45240;-82
2021/10/23 11:19:28;;;;;;;;;4.00;4.00;;;;;26.55;51.21;102247.81;5062540;28;45411;-82
2021/10/23 11:22:10;;;;;;;;;7.00;3.50;;;;;26.22;50.96;102239.66;5051852;28;45506;-81
2021/10/23 11:24:43;;;;;;;;;6.50;5.00;;;;;25.98;50.66;102245.06;5083150;27;45315;-81
2021/10/23 11:27:30;;;;;;;;;6.75;6.00;;;;;25.66;52.29;102244.03;5065271;28;44929;-81
2021/10/23 11:30:28;;;;;;;;;6.50;5.50;;;;;25.56;52.67;102245.16;5048249;28;45327;-81
2021/10/23 11:33:04;;;;;;;;;6.00;5.00;;;;;25.32;52.43;102262.13;5042638;28;45550;-81
2021/10/23 11:35:40;;;;;;;;;3.00;3.00;;;;;25.12;51.74;102239.94;5060833;28;46032;-81
2021/10/23 11:38:18;;;;;;;;;4.00;3.00;;;;;25.07;52.36;102253.06;5060440;28;45388;-81